sensor_id;sensor_type;location;lat;lon;timestamp;P1;durP1;ratioP1;P2;durP2;ratioP2
3979;SDS011;2004;52.452;13.120;2022-07-29T00:06:43;5.47;;;2.20;;
3979;SDS011;2004;52.452;13.120;2022-07-29T00:14:34;6.97;;;2.37;;
3979;SDS011;2004;52.452;13.120;2022-07-29T00:22:24;5.47;;;2.10;;
3979;SDS011;2004;52.452;13.120;2022-07-29T00:30:15;4.60;;;1.90;;
3979;SDS011;2004;52.452;13.120;2022-07-29T00:38:05;6.37;;;2.70;;
3979;SDS011;2004;52.452;13.120;2022-07-29T00:45:56;6.37;;;2.60;;
3979;SDS011;2004;52.452;13.120;2022-07-29T00:53:47;8.23;;;2.80;;
3979;SDS011;2004;52.452;13.120;2022-07-29T01:01:40;3.80;;;2.33;;
3979;SDS011;2004;52.452;13.120;2022-07-29T01:09:32;5.13;;;2.43;;
3979;SDS011;2004;52.452;13.120;2022-07-29T01:17:28;3.33;;;2.70;;
3979;SDS011;2004;52.452;13.120;2022-07-29T01:33:55;5.87;;;3.23;;
3979;SDS011;2004;52.452;13.120;2022-07-29T01:41:55;6.63;;;3.60;;
3979;SDS011;2004;52.452;13.120;2022-07-29T01:49:51;5.57;;;3.70;;
3979;SDS011;2004;52.452;13.120;2022-07-29T01:57:46;9.57;;;3.63;;
3979;SDS011;2004;52.452;13.120;2022-07-29T02:05:39;7.43;;;3.83;;
3979;SDS011;2004;52.452;13.120;2022-07-29T02:13:32;6.20;;;2.90;;
3979;SDS011;2004;52.452;13.120;2022-07-29T02:21:25;5.97;;;3.53;;
3979;SDS011;2004;52.452;13.120;2022-07-29T02:29:19;4.27;;;3.27;;
3979;SDS011;2004;52.452;13.120;2022-07-29T02:37:13;6.73;;;4.00;;
3979;SDS011;2004;52.452;13.120;2022-07-29T02:45:06;8.00;;;3.70;;
3979;SDS011;2004;52.452;13.120;2022-07-29T03:00:59;8.53;;;4.27;;
3979;SDS011;2004;52.452;13.120;2022-07-29T03:08:53;6.73;;;4.50;;
3979;SDS011;2004;52.452;13.120;2022-07-29T03:16:45;4.63;;;3.67;;
3979;SDS011;2004;52.452;13.120;2022-07-29T03:24:36;4.20;;;3.77;;
3979;SDS011;2004;52.452;13.120;2022-07-29T03:32:27;9.33;;;4.00;;
3979;SDS011;2004;52.452;13.120;2022-07-29T03:40:24;10.07;;;4.70;;
3979;SDS011;2004;52.452;13.120;2022-07-29T03:48:19;10.73;;;4.50;;
3979;SDS011;2004;52.452;13.120;2022-07-29T03:56:15;7.13;;;4.50;;
3979;SDS011;2004;52.452;13.120;2022-07-29T04:04:06;7.17;;;3.97;;
3979;SDS011;2004;52.452;13.120;2022-07-29T04:11:57;14.40;;;4.83;;
3979;SDS011;2004;52.452;13.120;2022-07-29T04:19:48;6.17;;;3.87;;
3979;SDS011;2004;52.452;13.120;2022-07-29T04:27:38;5.20;;;3.67;;
3979;SDS011;2004;52.452;13.120;2022-07-29T04:35:49;10.83;;;3.90;;
3979;SDS011;2004;52.452;13.120;2022-07-29T04:43:39;9.47;;;3.83;;
3979;SDS011;2004;52.452;13.120;2022-07-29T04:51:30;6.47;;;4.40;;
3979;SDS011;2004;52.452;13.120;2022-07-29T04:59:21;9.33;;;4.90;;
3979;SDS011;2004;52.452;13.120;2022-07-29T05:07:11;14.03;;;4.03;;
3979;SDS011;2004;52.452;13.120;2022-07-29T05:15:02;7.40;;;4.90;;
3979;SDS011;2004;52.452;13.120;2022-07-29T05:22:54;7.80;;;3.30;;
3979;SDS011;2004;52.452;13.120;2022-07-29T05:30:45;6.20;;;3.50;;
3979;SDS011;2004;52.452;13.120;2022-07-29T05:38:36;8.70;;;3.30;;
3979;SDS011;2004;52.452;13.120;2022-07-29T05:46:27;4.53;;;3.30;;
3979;SDS011;2004;52.452;13.120;2022-07-29T05:54:18;5.10;;;2.60;;
3979;SDS011;2004;52.452;13.120;2022-07-29T06:02:09;6.77;;;2.37;;
3979;SDS011;2004;52.452;13.120;2022-07-29T06:09:59;10.83;;;3.13;;
3979;SDS011;2004;52.452;13.120;2022-07-29T06:17:50;10.67;;;3.33;;
3979;SDS011;2004;52.452;13.120;2022-07-29T06:25:42;8.27;;;2.80;;
3979;SDS011;2004;52.452;13.120;2022-07-29T06:33:33;15.33;;;3.70;;
3979;SDS011;2004;52.452;13.120;2022-07-29T06:41:23;4.00;;;2.63;;
3979;SDS011;2004;52.452;13.120;2022-07-29T06:49:14;6.03;;;3.43;;
3979;SDS011;2004;52.452;13.120;2022-07-29T06:57:05;17.33;;;3.03;;
3979;SDS011;2004;52.452;13.120;2022-07-29T07:04:56;6.60;;;2.80;;
3979;SDS011;2004;52.452;13.120;2022-07-29T07:12:46;3.23;;;2.20;;
3979;SDS011;2004;52.452;13.120;2022-07-29T07:20:37;13.10;;;3.33;;
3979;SDS011;2004;52.452;13.120;2022-07-29T07:28:27;2.90;;;2.60;;
3979;SDS011;2004;52.452;13.120;2022-07-29T07:36:18;8.30;;;3.30;;
3979;SDS011;2004;52.452;13.120;2022-07-29T07:44:09;9.53;;;3.03;;
3979;SDS011;2004;52.452;13.120;2022-07-29T07:52:00;12.97;;;2.40;;
3979;SDS011;2004;52.452;13.120;2022-07-29T07:59:50;7.30;;;2.53;;
3979;SDS011;2004;52.452;13.120;2022-07-29T08:07:41;4.37;;;2.07;;
3979;SDS011;2004;52.452;13.120;2022-07-29T08:15:32;4.83;;;2.40;;
3979;SDS011;2004;52.452;13.120;2022-07-29T08:23:23;5.67;;;2.33;;
3979;SDS011;2004;52.452;13.120;2022-07-29T08:31:14;5.37;;;2.37;;
3979;SDS011;2004;52.452;13.120;2022-07-29T08:39:05;5.37;;;2.50;;
3979;SDS011;2004;52.452;13.120;2022-07-29T08:46:56;5.13;;;1.83;;
3979;SDS011;2004;52.452;13.120;2022-07-29T08:54:46;6.03;;;2.70;;
3979;SDS011;2004;52.452;13.120;2022-07-29T09:02:41;8.03;;;2.60;;
3979;SDS011;2004;52.452;13.120;2022-07-29T09:10:37;2.70;;;1.77;;
3979;SDS011;2004;52.452;13.120;2022-07-29T09:18:38;9.40;;;2.33;;
3979;SDS011;2004;52.452;13.120;2022-07-29T09:26:30;3.93;;;2.00;;
3979;SDS011;2004;52.452;13.120;2022-07-29T09:34:25;9.00;;;2.20;;
3979;SDS011;2004;52.452;13.120;2022-07-29T09:42:27;3.67;;;2.10;;
3979;SDS011;2004;52.452;13.120;2022-07-29T09:50:19;3.13;;;2.27;;
3979;SDS011;2004;52.452;13.120;2022-07-29T10:06:09;6.27;;;1.60;;
3979;SDS011;2004;52.452;13.120;2022-07-29T10:14:01;3.37;;;2.13;;
3979;SDS011;2004;52.452;13.120;2022-07-29T10:21:53;1.50;;;1.30;;
3979;SDS011;2004;52.452;13.120;2022-07-29T10:29:44;4.67;;;2.00;;
3979;SDS011;2004;52.452;13.120;2022-07-29T10:37:46;2.80;;;1.80;;
3979;SDS011;2004;52.452;13.120;2022-07-29T10:46:01;2.63;;;1.73;;
3979;SDS011;2004;52.452;13.120;2022-07-29T10:53:53;8.63;;;3.57;;
3979;SDS011;2004;52.452;13.120;2022-07-29T11:01:43;5.83;;;2.33;;
3979;SDS011;2004;52.452;13.120;2022-07-29T11:09:34;5.23;;;2.10;;
3979;SDS011;2004;52.452;13.120;2022-07-29T11:17:25;13.97;;;2.23;;
3979;SDS011;2004;52.452;13.120;2022-07-29T11:25:16;3.23;;;1.63;;
3979;SDS011;2004;52.452;13.120;2022-07-29T11:33:08;1.47;;;1.37;;
3979;SDS011;2004;52.452;13.120;2022-07-29T11:41:23;10.07;;;2.13;;
3979;SDS011;2004;52.452;13.120;2022-07-29T11:49:22;4.60;;;2.20;;
3979;SDS011;2004;52.452;13.120;2022-07-29T11:57:18;6.50;;;2.17;;
3979;SDS011;2004;52.452;13.120;2022-07-29T12:05:09;4.63;;;2.40;;
3979;SDS011;2004;52.452;13.120;2022-07-29T12:13:00;3.67;;;2.50;;
3979;SDS011;2004;52.452;13.120;2022-07-29T12:20:58;14.53;;;2.40;;
3979;SDS011;2004;52.452;13.120;2022-07-29T12:28:50;3.53;;;2.47;;
3979;SDS011;2004;52.452;13.120;2022-07-29T12:36:41;5.77;;;2.70;;
3979;SDS011;2004;52.452;13.120;2022-07-29T12:44:45;10.37;;;3.10;;
3979;SDS011;2004;52.452;13.120;2022-07-29T12:52:40;12.10;;;2.90;;
3979;SDS011;2004;52.452;13.120;2022-07-29T13:00:30;5.13;;;2.63;;
3979;SDS011;2004;52.452;13.120;2022-07-29T13:08:21;8.70;;;2.50;;
3979;SDS011;2004;52.452;13.120;2022-07-29T13:16:12;9.57;;;3.00;;
3979;SDS011;2004;52.452;13.120;2022-07-29T13:24:02;2.75;;;2.45;;
3979;SDS011;2004;52.452;13.120;2022-07-29T13:31:54;11.97;;;3.00;;
3979;SDS011;2004;52.452;13.120;2022-07-29T13:39:45;4.67;;;2.93;;
3979;SDS011;2004;52.452;13.120;2022-07-29T13:47:37;6.75;;;2.60;;
3979;SDS011;2004;52.452;13.120;2022-07-29T13:55:28;3.10;;;2.30;;
3979;SDS011;2004;52.452;13.120;2022-07-29T14:03:18;5.10;;;2.60;;
3979;SDS011;2004;52.452;13.120;2022-07-29T14:11:09;3.80;;;2.53;;
3979;SDS011;2004;52.452;13.120;2022-07-29T14:19:00;8.87;;;3.37;;
3979;SDS011;2004;52.452;13.120;2022-07-29T14:26:50;3.63;;;2.53;;
3979;SDS011;2004;52.452;13.120;2022-07-29T14:34:41;8.37;;;2.67;;
3979;SDS011;2004;52.452;13.120;2022-07-29T14:42:31;4.60;;;2.90;;
3979;SDS011;2004;52.452;13.120;2022-07-29T14:50:22;8.03;;;2.90;;
3979;SDS011;2004;52.452;13.120;2022-07-29T14:58:13;6.67;;;2.67;;
3979;SDS011;2004;52.452;13.120;2022-07-29T15:06:04;8.07;;;2.80;;
3979;SDS011;2004;52.452;13.120;2022-07-29T15:13:55;4.50;;;2.70;;
3979;SDS011;2004;52.452;13.120;2022-07-29T15:21:45;6.17;;;3.17;;
3979;SDS011;2004;52.452;13.120;2022-07-29T15:29:36;10.80;;;2.13;;
3979;SDS011;2004;52.452;13.120;2022-07-29T15:37:27;7.90;;;2.43;;
3979;SDS011;2004;52.452;13.120;2022-07-29T15:45:18;5.37;;;3.07;;
3979;SDS011;2004;52.452;13.120;2022-07-29T15:53:09;4.77;;;2.60;;
3979;SDS011;2004;52.452;13.120;2022-07-29T16:00:59;2.90;;;2.63;;
3979;SDS011;2004;52.452;13.120;2022-07-29T16:08:50;5.37;;;2.70;;
3979;SDS011;2004;52.452;13.120;2022-07-29T16:16:40;9.13;;;2.70;;
3979;SDS011;2004;52.452;13.120;2022-07-29T16:24:31;6.83;;;2.50;;
3979;SDS011;2004;52.452;13.120;2022-07-29T16:32:22;4.70;;;2.70;;
3979;SDS011;2004;52.452;13.120;2022-07-29T16:40:13;6.93;;;3.50;;
3979;SDS011;2004;52.452;13.120;2022-07-29T16:48:04;5.57;;;2.63;;
3979;SDS011;2004;52.452;13.120;2022-07-29T16:55:54;3.67;;;2.40;;
3979;SDS011;2004;52.452;13.120;2022-07-29T17:03:45;21.00;;;2.83;;
3979;SDS011;2004;52.452;13.120;2022-07-29T17:11:54;14.60;;;2.50;;
3979;SDS011;2004;52.452;13.120;2022-07-29T17:19:45;2.63;;;2.40;;
3979;SDS011;2004;52.452;13.120;2022-07-29T17:27:36;3.60;;;2.30;;
3979;SDS011;2004;52.452;13.120;2022-07-29T17:35:26;2.40;;;2.17;;
3979;SDS011;2004;52.452;13.120;2022-07-29T17:43:35;5.47;;;2.50;;
3979;SDS011;2004;52.452;13.120;2022-07-29T17:51:26;3.33;;;2.23;;
3979;SDS011;2004;52.452;13.120;2022-07-29T17:59:17;7.10;;;2.50;;
3979;SDS011;2004;52.452;13.120;2022-07-29T18:07:07;3.53;;;2.30;;
3979;SDS011;2004;52.452;13.120;2022-07-29T18:14:58;5.77;;;2.23;;
3979;SDS011;2004;52.452;13.120;2022-07-29T18:22:48;17.03;;;2.50;;
3979;SDS011;2004;52.452;13.120;2022-07-29T18:30:40;4.70;;;2.07;;
3979;SDS011;2004;52.452;13.120;2022-07-29T18:38:31;7.20;;;2.20;;
3979;SDS011;2004;52.452;13.120;2022-07-29T18:46:21;7.53;;;2.70;;
3979;SDS011;2004;52.452;13.120;2022-07-29T18:54:12;4.43;;;2.37;;
3979;SDS011;2004;52.452;13.120;2022-07-29T19:02:03;11.07;;;1.70;;
3979;SDS011;2004;52.452;13.120;2022-07-29T19:09:53;5.20;;;2.40;;
3979;SDS011;2004;52.452;13.120;2022-07-29T19:17:45;8.03;;;2.17;;
3979;SDS011;2004;52.452;13.120;2022-07-29T19:25:36;10.57;;;2.53;;
3979;SDS011;2004;52.452;13.120;2022-07-29T19:33:27;5.13;;;2.40;;
3979;SDS011;2004;52.452;13.120;2022-07-29T19:41:18;9.13;;;2.13;;
3979;SDS011;2004;52.452;13.120;2022-07-29T19:49:08;3.90;;;2.03;;
3979;SDS011;2004;52.452;13.120;2022-07-29T19:56:59;3.53;;;2.47;;
3979;SDS011;2004;52.452;13.120;2022-07-29T20:04:50;5.73;;;2.30;;
3979;SDS011;2004;52.452;13.120;2022-07-29T20:12:40;3.83;;;2.23;;
3979;SDS011;2004;52.452;13.120;2022-07-29T20:20:31;4.93;;;2.60;;
3979;SDS011;2004;52.452;13.120;2022-07-29T20:28:22;11.67;;;2.60;;
3979;SDS011;2004;52.452;13.120;2022-07-29T20:36:13;3.27;;;2.23;;
3979;SDS011;2004;52.452;13.120;2022-07-29T20:44:03;6.70;;;2.33;;
3979;SDS011;2004;52.452;13.120;2022-07-29T20:51:54;9.37;;;2.27;;
3979;SDS011;2004;52.452;13.120;2022-07-29T20:59:45;8.97;;;2.30;;
3979;SDS011;2004;52.452;13.120;2022-07-29T21:07:35;3.27;;;2.00;;
3979;SDS011;2004;52.452;13.120;2022-07-29T21:15:26;13.10;;;2.57;;
3979;SDS011;2004;52.452;13.120;2022-07-29T21:23:18;7.13;;;2.00;;
3979;SDS011;2004;52.452;13.120;2022-07-29T21:31:09;7.23;;;2.50;;
3979;SDS011;2004;52.452;13.120;2022-07-29T21:39:05;6.10;;;2.17;;
3979;SDS011;2004;52.452;13.120;2022-07-29T21:46:55;10.90;;;2.80;;
3979;SDS011;2004;52.452;13.120;2022-07-29T21:54:46;5.80;;;2.53;;
3979;SDS011;2004;52.452;13.120;2022-07-29T22:02:37;6.70;;;2.30;;
3979;SDS011;2004;52.452;13.120;2022-07-29T22:10:28;4.97;;;2.27;;
3979;SDS011;2004;52.452;13.120;2022-07-29T22:18:19;5.80;;;2.20;;
3979;SDS011;2004;52.452;13.120;2022-07-29T22:26:10;23.67;;;3.20;;
3979;SDS011;2004;52.452;13.120;2022-07-29T22:34:01;6.03;;;2.23;;
3979;SDS011;2004;52.452;13.120;2022-07-29T22:41:51;6.17;;;2.53;;
3979;SDS011;2004;52.452;13.120;2022-07-29T22:49:42;4.17;;;2.27;;
3979;SDS011;2004;52.452;13.120;2022-07-29T22:57:33;7.93;;;2.80;;
3979;SDS011;2004;52.452;13.120;2022-07-29T23:05:23;4.57;;;2.30;;
3979;SDS011;2004;52.452;13.120;2022-07-29T23:13:15;4.83;;;2.50;;
3979;SDS011;2004;52.452;13.120;2022-07-29T23:21:05;10.00;;;2.40;;
3979;SDS011;2004;52.452;13.120;2022-07-29T23:28:56;6.63;;;2.50;;
3979;SDS011;2004;52.452;13.120;2022-07-29T23:36:47;10.17;;;2.17;;
3979;SDS011;2004;52.452;13.120;2022-07-29T23:44:37;5.30;;;2.43;;
3979;SDS011;2004;52.452;13.120;2022-07-29T23:52:28;12.63;;;2.53;;
